Time;durP1;ratioP1;P1;durP2;ratioP2;P2;SDS_P1;SDS_P2;PMS_P1;PMS_P2;Temp;Humidity;BMP_temperature;BMP_pressure;BME280_temperature;BME280_humidity;BME280_pressure;Samples;Min_cycle;Max_cycle;Signal;HPM_P1;HPM_P2
2024/03/23 00:02:21;;;;;;;27.38;18.90;;;;;;;;;;5074274;28;20039;-60
2024/03/23 00:04:46;;;;;;;31.75;20.55;;;;;;;;;;5056269;28;20063;-60
2024/03/23 00:07:12;;;;;;;33.30;19.35;;;;;;;;;;5074300;28;20536;-60
2024/03/23 00:09:38;;;;;;;36.95;20.73;;;;;;;;;;5074223;28;20111;-60
2024/03/23 00:12:04;;;;;;;28.98;19.08;;;;;;;;;;5074261;28;20430;-60
2024/03/23 00:14:30;;;;;;;30.63;19.00;;;;;;;;;;5056195;28;20115;-60
2024/03/23 00:16:56;;;;;;;33.78;20.30;;;;;;;;;;5074072;28;20067;-60
2024/03/23 00:19:21;;;;;;;34.20;19.20;;;;;;;;;;5074042;28;20113;-59
2024/03/23 00:21:47;;;;;;;33.20;19.25;;;;;;;;;;5055516;28;20479;-59
2024/03/23 00:24:13;;;;;;;30.13;18.83;;;;;;;;;;5056049;28;20115;-59
2024/03/23 00:26:39;;;;;;;26.40;18.50;;;;;;;;;;5074229;28;20019;-59
2024/03/23 00:29:05;;;;;;;31.70;19.50;;;;;;;;;;5073882;28;20032;-59
2024/03/23 00:31:31;;;;;;;31.00;19.25;;;;;;;;;;5056054;28;20033;-59
2024/03/23 00:33:57;;;;;;;30.75;20.00;;;;;;;;;;5073539;28;20043;-59
2024/03/23 00:36:23;;;;;;;36.38;22.27;;;;;;;;;;5073549;28;20111;-59
2024/03/23 00:38:49;;;;;;;34.60;19.83;;;;;;;;;;5073616;28;20028;-59
2024/03/23 00:41:15;;;;;;;40.63;24.83;;;;;;;;;;5073681;28;20056;-59
2024/03/23 00:43:40;;;;;;;75.15;37.42;;;;;;;;;;5055727;28;20062;-59
2024/03/23 00:46:06;;;;;;;82.68;38.50;;;;;;;;;;5073696;28;20099;-59
2024/03/23 00:48:32;;;;;;;67.47;34.72;;;;;;;;;;5073646;28;20084;-59
2024/03/23 00:51:01;;;;;;;61.22;32.50;;;;;;;;;;5039068;28;20127;-60
2024/03/23 00:53:26;;;;;;;56.38;31.58;;;;;;;;;;5073443;28;20028;-60
2024/03/23 00:55:52;;;;;;;54.47;31.52;;;;;;;;;;5073597;28;20031;-59
2024/03/23 00:58:17;;;;;;;54.78;29.33;;;;;;;;;;5073613;28;20536;-59
2024/03/23 01:00:44;;;;;;;49.03;27.13;;;;;;;;;;5073513;28;20031;-59
2024/03/23 01:03:09;;;;;;;53.45;29.27;;;;;;;;;;5073534;28;20036;-59
2024/03/23 01:05:35;;;;;;;46.95;27.05;;;;;;;;;;5055495;28;20036;-59
2024/03/23 01:08:00;;;;;;;47.08;27.10;;;;;;;;;;5055566;28;20055;-60
2024/03/23 01:10:25;;;;;;;41.88;24.67;;;;;;;;;;5055462;28;20090;-61
2024/03/23 01:12:51;;;;;;;36.17;22.40;;;;;;;;;;5073506;28;20047;-61
2024/03/23 01:15:16;;;;;;;38.05;23.05;;;;;;;;;;5076323;28;20032;-61
2024/03/23 01:17:41;;;;;;;41.80;24.45;;;;;;;;;;5077605;28;20032;-61
2024/03/23 01:20:07;;;;;;;37.17;22.33;;;;;;;;;;5077544;28;20044;-61
2024/03/23 01:22:33;;;;;;;35.60;21.58;;;;;;;;;;5077449;28;20104;-59
2024/03/23 01:24:59;;;;;;;35.88;21.98;;;;;;;;;;5077228;28;20078;-60
2024/03/23 01:27:25;;;;;;;42.17;24.42;;;;;;;;;;5077346;28;20032;-59
2024/03/23 01:29:52;;;;;;;42.50;24.52;;;;;;;;;;5077248;28;20021;-60
2024/03/23 01:32:18;;;;;;;40.15;24.45;;;;;;;;;;5077304;28;20031;-60
2024/03/23 01:34:43;;;;;;;35.30;22.33;;;;;;;;;;5077109;28;20049;-60
2024/03/23 01:37:09;;;;;;;36.92;22.50;;;;;;;;;;5077111;28;20031;-59
2024/03/23 01:39:34;;;;;;;44.70;25.73;;;;;;;;;;5077139;28;20067;-59
2024/03/23 01:41:59;;;;;;;46.08;26.67;;;;;;;;;;5077031;28;20067;-60
2024/03/23 01:44:25;;;;;;;35.55;22.00;;;;;;;;;;5059208;28;20065;-60
2024/03/23 01:46:51;;;;;;;37.70;22.25;;;;;;;;;;5058949;28;20115;-59
2024/03/23 01:49:17;;;;;;;49.42;26.92;;;;;;;;;;5058952;28;20024;-61
2024/03/23 01:51:43;;;;;;;41.22;23.73;;;;;;;;;;5058929;28;20028;-60
2024/03/23 01:54:09;;;;;;;34.85;21.60;;;;;;;;;;5058874;28;20028;-60
2024/03/23 01:56:37;;;;;;;34.30;21.15;;;;;;;;;;5076782;28;20158;-60
2024/03/23 01:59:03;;;;;;;25.08;18.02;;;;;;;;;;5058960;28;20051;-59
2024/03/23 02:01:29;;;;;;;28.95;18.80;;;;;;;;;;5076726;28;20032;-64
2024/03/23 02:03:55;;;;;;;30.67;19.10;;;;;;;;;;5076707;28;20025;-64
2024/03/23 02:06:20;;;;;;;31.33;19.00;;;;;;;;;;5076495;28;20579;-64
2024/03/23 02:08:46;;;;;;;32.53;20.65;;;;;;;;;;5076572;28;20047;-64
2024/03/23 02:11:12;;;;;;;35.58;21.73;;;;;;;;;;5076887;28;20052;-64
2024/03/23 02:13:37;;;;;;;30.25;20.40;;;;;;;;;;5076506;28;20055;-64
2024/03/23 02:16:04;;;;;;;34.33;22.27;;;;;;;;;;5076434;28;20044;-64
2024/03/23 02:18:30;;;;;;;34.35;20.23;;;;;;;;;;5076268;28;20031;-65
2024/03/23 02:20:55;;;;;;;37.40;20.95;;;;;;;;;;5076317;28;20032;-65
2024/03/23 02:23:21;;;;;;;32.33;19.90;;;;;;;;;;5076252;28;20091;-65
2024/03/23 02:25:46;;;;;;;30.88;18.98;;;;;;;;;;5074818;28;20033;-64
2024/03/23 02:28:12;;;;;;;28.67;18.38;;;;;;;;;;5076158;28;20143;-64
2024/03/23 02:30:38;;;;;;;29.88;18.45;;;;;;;;;;5076161;28;20498;-64
2024/03/23 02:33:03;;;;;;;29.63;18.73;;;;;;;;;;5058115;28;20116;-64
2024/03/23 02:35:29;;;;;;;31.15;18.55;;;;;;;;;;5075745;28;20043;-64
2024/03/23 02:37:56;;;;;;;26.73;18.10;;;;;;;;;;5075855;28;20518;-64
2024/03/23 02:40:22;;;;;;;29.20;18.17;;;;;;;;;;5075941;28;20467;-64
2024/03/23 02:42:48;;;;;;;28.90;19.02;;;;;;;;;;5058045;28;20082;-64
2024/03/23 02:45:13;;;;;;;29.80;17.90;;;;;;;;;;5075828;28;20032;-64
2024/03/23 02:47:38;;;;;;;28.05;17.48;;;;;;;;;;5075907;28;20425;-64
2024/03/23 02:50:04;;;;;;;27.75;17.13;;;;;;;;;;5075798;28;20028;-64
2024/03/23 02:52:30;;;;;;;27.10;17.42;;;;;;;;;;5075811;28;20126;-64
2024/03/23 02:54:55;;;;;;;26.23;17.13;;;;;;;;;;5057777;28;20072;-65
2024/03/23 02:57:20;;;;;;;30.75;17.70;;;;;;;;;;5075566;28;20120;-65
2024/03/23 02:59:46;;;;;;;29.20;18.88;;;;;;;;;;5075626;28;20036;-65
2024/03/23 03:02:13;;;;;;;33.22;19.90;;;;;;;;;;5075551;28;20025;-65
2024/03/23 03:04:38;;;;;;;29.98;18.85;;;;;;;;;;5040942;28;20032;-64
2024/03/23 03:07:04;;;;;;;25.88;17.77;;;;;;;;;;5057534;28;20032;-63
2024/03/23 03:09:29;;;;;;;27.20;16.92;;;;;;;;;;5075520;28;20477;-64
2024/03/23 03:11:55;;;;;;;30.23;18.23;;;;;;;;;;5084032;22;20155;-64
2024/03/23 03:14:20;;;;;;;35.33;20.02;;;;;;;;;;5075389;28;20385;-64
2024/03/23 03:16:45;;;;;;;34.70;19.05;;;;;;;;;;5075295;28;20020;-64
2024/03/23 03:19:13;;;;;;;38.88;21.55;;;;;;;;;;5075612;28;20036;-63
2024/03/23 03:21:38;;;;;;;31.00;19.33;;;;;;;;;;5057619;28;20524;-63
2024/03/23 03:24:06;;;;;;;29.25;18.30;;;;;;;;;;5075233;28;20032;-63
2024/03/23 03:26:31;;;;;;;31.00;18.45;;;;;;;;;;5075406;28;20037;-63
2024/03/23 03:28:57;;;;;;;29.83;17.52;;;;;;;;;;5075614;28;20024;-63
2024/03/23 03:31:22;;;;;;;27.58;16.45;;;;;;;;;;5075075;28;20406;-64
2024/03/23 03:37:09;;;;;;;23.90;15.93;;;;;;;;;;5072691;23;20044;-63
2024/03/23 03:39:34;;;;;;;26.33;16.85;;;;;;;;;;5075168;28;20024;-59
2024/03/23 03:42:01;;;;;;;29.30;17.95;;;;;;;;;;5074818;28;20482;-58
2024/03/23 03:44:43;;;;;;;25.50;16.80;;;;;;;;;;5074722;28;20032;-59
2024/03/23 03:47:08;;;;;;;40.55;21.88;;;;;;;;;;5075013;28;20028;-59
2024/03/23 03:49:33;;;;;;;32.83;18.65;;;;;;;;;;5056896;28;20375;-59
2024/03/23 03:52:01;;;;;;;26.10;16.95;;;;;;;;;;5074624;28;20035;-59
2024/03/23 03:54:26;;;;;;;26.55;16.55;;;;;;;;;;5056646;28;20434;-58
2024/03/23 03:56:51;;;;;;;26.55;17.25;;;;;;;;;;5074541;28;20116;-59
2024/03/23 03:59:17;;;;;;;32.58;18.88;;;;;;;;;;5074482;28;20458;-59
2024/03/23 04:01:42;;;;;;;34.22;19.77;;;;;;;;;;5056637;28;20536;-59
2024/03/23 04:04:08;;;;;;;26.58;17.45;;;;;;;;;;5074403;28;20020;-58
2024/03/23 04:06:33;;;;;;;25.92;17.13;;;;;;;;;;5074314;28;20034;-58
2024/03/23 04:08:59;;;;;;;24.83;16.52;;;;;;;;;;5074339;28;20070;-58
2024/03/23 04:11:25;;;;;;;28.48;17.65;;;;;;;;;;5074541;28;20015;-59
2024/03/23 04:13:50;;;;;;;25.92;17.13;;;;;;;;;;5074222;28;20035;-58
2024/03/23 04:16:26;;;;;;;23.80;15.98;;;;;;;;;;5074168;28;20071;-59
2024/03/23 04:18:51;;;;;;;23.63;15.80;;;;;;;;;;5074418;28;20032;-59
2024/03/23 04:21:19;;;;;;;22.40;14.93;;;;;;;;;;5074100;28;20051;-58
2024/03/23 04:23:44;;;;;;;22.52;15.50;;;;;;;;;;5074611;28;20036;-59
2024/03/23 04:26:10;;;;;;;25.23;15.85;;;;;;;;;;5073929;28;20051;-58
2024/03/23 04:28:36;;;;;;;27.52;15.70;;;;;;;;;;5073992;28;20013;-58
2024/03/23 04:31:04;;;;;;;22.33;14.68;;;;;;;;;;5074246;28;20459;-58
2024/03/23 04:33:29;;;;;;;25.38;15.60;;;;;;;;;;5074203;28;20054;-59
2024/03/23 04:35:55;;;;;;;30.30;16.73;;;;;;;;;;5073706;28;20123;-58
2024/03/23 04:38:20;;;;;;;26.65;15.77;;;;;;;;;;5039364;28;20079;-59
2024/03/23 04:40:54;;;;;;;34.97;19.60;;;;;;;;;;5073823;28;20025;-59
2024/03/23 04:43:19;;;;;;;32.22;18.80;;;;;;;;;;5056267;28;20036;-59
2024/03/23 04:45:44;;;;;;;26.02;16.55;;;;;;;;;;5073731;28;20367;-59
2024/03/23 04:48:10;;;;;;;32.17;18.42;;;;;;;;;;5055491;28;20048;-58
2024/03/23 04:50:37;;;;;;;28.08;16.88;;;;;;;;;;5073626;28;20099;-59
2024/03/23 04:53:03;;;;;;;25.17;16.02;;;;;;;;;;5056892;28;20103;-59
2024/03/23 04:55:28;;;;;;;25.80;15.68;;;;;;;;;;5055768;28;20056;-59
2024/03/23 04:57:54;;;;;;;25.63;16.50;;;;;;;;;;5056334;28;20435;-59
2024/03/23 05:00:19;;;;;;;31.98;18.77;;;;;;;;;;5073673;28;20111;-60
2024/03/23 05:02:45;;;;;;;25.10;16.75;;;;;;;;;;5073843;28;20039;-59
2024/03/23 05:05:11;;;;;;;29.83;16.83;;;;;;;;;;5073839;28;20059;-59
2024/03/23 05:07:36;;;;;;;21.95;15.05;;;;;;;;;;5073536;28;20489;-59
2024/03/23 05:10:01;;;;;;;24.00;16.20;;;;;;;;;;5073522;28;20029;-58
2024/03/23 05:12:27;;;;;;;25.15;15.77;;;;;;;;;;5074059;28;20417;-59
2024/03/23 05:14:52;;;;;;;28.05;17.48;;;;;;;;;;5073785;28;20047;-58
2024/03/23 05:17:18;;;;;;;27.65;16.48;;;;;;;;;;5073774;28;20039;-59
2024/03/23 05:19:44;;;;;;;33.88;18.83;;;;;;;;;;5073719;28;20096;-59
2024/03/23 05:22:09;;;;;;;35.10;19.85;;;;;;;;;;5073720;28;20037;-59
2024/03/23 05:24:35;;;;;;;43.90;23.40;;;;;;;;;;5073341;28;20024;-59
2024/03/23 05:27:00;;;;;;;33.28;19.48;;;;;;;;;;5073688;28;20108;-59
2024/03/23 05:29:26;;;;;;;35.50;20.83;;;;;;;;;;5055541;28;20475;-57
2024/03/23 05:31:52;;;;;;;32.50;19.08;;;;;;;;;;5073579;28;20016;-57
2024/03/23 05:34:17;;;;;;;46.70;25.00;;;;;;;;;;5073574;28;20028;-57
2024/03/23 05:36:43;;;;;;;42.67;23.00;;;;;;;;;;5073202;28;20104;-57
2024/03/23 05:39:08;;;;;;;32.67;19.45;;;;;;;;;;5038664;28;20059;-57
2024/03/23 05:41:36;;;;;;;26.30;16.50;;;;;;;;;;5055245;28;20032;-56
2024/03/23 05:44:01;;;;;;;24.48;15.65;;;;;;;;;;5055223;28;20032;-56
2024/03/23 05:46:26;;;;;;;23.65;15.68;;;;;;;;;;5073152;28;20040;-56
2024/03/23 05:48:52;;;;;;;25.88;15.38;;;;;;;;;;5073439;28;20024;-57
2024/03/23 05:51:25;;;;;;;21.70;14.70;;;;;;;;;;5073424;28;20035;-57
2024/03/23 05:53:51;;;;;;;22.38;15.07;;;;;;;;;;5055805;28;20033;-57
2024/03/23 05:56:19;;;;;;;25.02;15.65;;;;;;;;;;5073050;28;20025;-57
2024/03/23 05:58:44;;;;;;;22.05;14.82;;;;;;;;;;5054977;28;20028;-57
2024/03/23 06:01:10;;;;;;;23.73;15.18;;;;;;;;;;5075360;28;20028;-57
2024/03/23 06:03:35;;;;;;;23.00;15.73;;;;;;;;;;5076550;28;20032;-57
2024/03/23 06:06:00;;;;;;;24.83;16.10;;;;;;;;;;5058741;28;20033;-57
2024/03/23 06:08:26;;;;;;;26.10;16.35;;;;;;;;;;5076694;28;20036;-57
2024/03/23 06:10:51;;;;;;;24.70;16.52;;;;;;;;;;5058999;28;20028;-58
2024/03/23 06:13:17;;;;;;;22.13;15.57;;;;;;;;;;5077103;28;20021;-57
2024/03/23 06:15:43;;;;;;;24.45;16.17;;;;;;;;;;5076784;28;20498;-58
2024/03/23 06:18:08;;;;;;;23.90;16.23;;;;;;;;;;5058567;28;20028;-57
2024/03/23 06:20:34;;;;;;;26.05;18.13;;;;;;;;;;5076985;28;20017;-57
2024/03/23 06:23:00;;;;;;;32.42;20.85;;;;;;;;;;5076392;28;20025;-57
2024/03/23 06:25:26;;;;;;;44.58;26.38;;;;;;;;;;5058427;28;20043;-57
2024/03/23 06:27:51;;;;;;;35.60;22.52;;;;;;;;;;5059048;28;20115;-60
2024/03/23 06:30:16;;;;;;;44.13;26.35;;;;;;;;;;5075040;28;20064;-56
2024/03/23 06:32:42;;;;;;;23.73;16.65;;;;;;;;;;5071066;28;20040;-58
2024/03/23 06:35:09;;;;;;;24.08;15.80;;;;;;;;;;5073512;28;20035;-57
2024/03/23 06:37:38;;;;;;;24.60;16.50;;;;;;;;;;5056757;28;20064;-67
2024/03/23 06:40:06;;;;;;;23.95;16.48;;;;;;;;;;5073153;28;20058;-57
2024/03/23 06:42:32;;;;;;;25.38;17.25;;;;;;;;;;5072752;28;20051;-58
2024/03/23 06:44:57;;;;;;;22.60;15.95;;;;;;;;;;5069730;28;20076;-56
2024/03/23 06:47:22;;;;;;;18.48;14.10;;;;;;;;;;5073271;28;20028;-57
2024/03/23 06:49:48;;;;;;;20.90;13.90;;;;;;;;;;5054955;28;20094;-57
2024/03/23 06:52:13;;;;;;;17.58;13.40;;;;;;;;;;5072892;28;20378;-57
2024/03/23 06:54:38;;;;;;;18.70;13.82;;;;;;;;;;5055226;28;20545;-57
2024/03/23 06:57:04;;;;;;;18.98;13.77;;;;;;;;;;5073048;28;20086;-57
2024/03/23 06:59:29;;;;;;;18.52;13.30;;;;;;;;;;5071879;28;20031;-57
2024/03/23 07:01:55;;;;;;;20.73;13.77;;;;;;;;;;5054928;28;20030;-62
2024/03/23 07:04:20;;;;;;;18.40;13.07;;;;;;;;;;5072816;28;20478;-61
2024/03/23 07:06:45;;;;;;;19.55;13.07;;;;;;;;;;5072186;28;20397;-61
2024/03/23 07:09:11;;;;;;;19.05;13.35;;;;;;;;;;5054573;28;20684;-62
2024/03/23 07:11:37;;;;;;;18.58;12.65;;;;;;;;;;5052794;28;20128;-62
2024/03/23 07:14:05;;;;;;;17.88;12.93;;;;;;;;;;5072246;28;20025;-62
2024/03/23 07:16:31;;;;;;;20.27;13.32;;;;;;;;;;5072413;28;20032;-62
2024/03/23 07:18:56;;;;;;;19.77;13.15;;;;;;;;;;5071895;28;20538;-61
2024/03/23 07:21:22;;;;;;;20.98;13.93;;;;;;;;;;5037590;28;20135;-63
2024/03/23 07:23:47;;;;;;;23.45;14.77;;;;;;;;;;5054383;28;20032;-61
2024/03/23 07:26:13;;;;;;;24.25;15.05;;;;;;;;;;5054285;28;20040;-61
2024/03/23 07:28:42;;;;;;;23.67;13.95;;;;;;;;;;5072162;28;20445;-61
2024/03/23 07:31:09;;;;;;;23.15;15.00;;;;;;;;;;5071624;28;20025;-61
2024/03/23 07:33:34;;;;;;;24.23;16.73;;;;;;;;;;5071403;28;20040;-62
2024/03/23 07:36:00;;;;;;;23.02;16.88;;;;;;;;;;5071354;28;20044;-62
2024/03/23 07:38:26;;;;;;;21.92;15.38;;;;;;;;;;5071179;28;20051;-61
2024/03/23 07:40:55;;;;;;;24.15;15.00;;;;;;;;;;5071123;28;20024;-62
2024/03/23 07:43:21;;;;;;;28.83;16.48;;;;;;;;;;5071283;28;20037;-62
2024/03/23 07:45:53;;;;;;;21.00;12.07;;;;;;;;;;5053072;28;20044;-62
2024/03/23 07:48:18;;;;;;;21.30;11.45;;;;;;;;;;5071460;28;20028;-61
2024/03/23 07:50:43;;;;;;;20.08;12.88;;;;;;;;;;5053053;28;20035;-61
2024/03/23 07:53:09;;;;;;;19.60;11.07;;;;;;;;;;5070976;28;20081;-61
2024/03/23 07:55:34;;;;;;;21.05;11.40;;;;;;;;;;5071152;28;20040;-61
2024/03/23 07:58:00;;;;;;;18.95;11.85;;;;;;;;;;5070945;28;20375;-61
2024/03/23 08:00:26;;;;;;;17.70;11.55;;;;;;;;;;5070918;28;20119;-63
2024/03/23 08:02:51;;;;;;;20.17;11.45;;;;;;;;;;5053879;28;20020;-57
2024/03/23 08:05:17;;;;;;;22.02;11.18;;;;;;;;;;5053941;28;20390;-57
2024/03/23 08:07:42;;;;;;;16.40;9.88;;;;;;;;;;5071451;28;20133;-57
2024/03/23 08:10:07;;;;;;;17.90;10.00;;;;;;;;;;5071418;28;20094;-57
2024/03/23 08:12:33;;;;;;;17.05;9.48;;;;;;;;;;5071337;28;20024;-59
2024/03/23 08:14:58;;;;;;;18.60;9.93;;;;;;;;;;5070970;28;20028;-57
2024/03/23 08:17:23;;;;;;;17.13;9.93;;;;;;;;;;5070906;28;20038;-57
2024/03/23 08:19:49;;;;;;;18.38;10.27;;;;;;;;;;5071335;28;20033;-57
2024/03/23 08:22:14;;;;;;;17.80;9.35;;;;;;;;;;5053296;28;20037;-57
2024/03/23 08:24:40;;;;;;;13.93;7.70;;;;;;;;;;5053700;28;20027;-57
2024/03/23 08:27:05;;;;;;;10.13;7.28;;;;;;;;;;5071243;28;20075;-57
2024/03/23 08:29:31;;;;;;;11.18;7.40;;;;;;;;;;5071257;28;20032;-57
2024/03/23 08:31:56;;;;;;;7.53;5.70;;;;;;;;;;5053149;28;20038;-57
2024/03/23 08:34:22;;;;;;;7.90;6.20;;;;;;;;;;5070546;28;20028;-57
2024/03/23 08:36:47;;;;;;;5.95;5.13;;;;;;;;;;5069800;28;20048;-57
2024/03/23 08:39:13;;;;;;;6.70;5.07;;;;;;;;;;5070267;28;20045;-57
2024/03/23 08:41:38;;;;;;;10.10;6.70;;;;;;;;;;5069092;28;20052;-57
2024/03/23 08:44:03;;;;;;;4.53;3.90;;;;;;;;;;5051357;28;20630;-62
2024/03/23 08:46:29;;;;;;;7.55;5.28;;;;;;;;;;5069255;28;20032;-62
2024/03/23 08:48:54;;;;;;;7.85;6.05;;;;;;;;;;5035168;28;20111;-62
2024/03/23 08:51:20;;;;;;;7.30;5.03;;;;;;;;;;5069675;28;20036;-62
2024/03/23 08:53:45;;;;;;;5.25;4.13;;;;;;;;;;5070007;28;20028;-62
2024/03/23 08:56:11;;;;;;;8.05;5.53;;;;;;;;;;5070883;28;20046;-62
2024/03/23 08:58:37;;;;;;;10.02;5.55;;;;;;;;;;5070620;28;20059;-56
2024/03/23 09:01:04;;;;;;;6.05;5.25;;;;;;;;;;5070747;28;20040;-56
2024/03/23 09:03:29;;;;;;;7.13;5.03;;;;;;;;;;5071183;28;20037;-56
2024/03/23 09:05:55;;;;;;;4.55;4.15;;;;;;;;;;5070477;28;20119;-56
2024/03/23 09:08:20;;;;;;;8.07;4.78;;;;;;;;;;5071050;28;20032;-56
2024/03/23 09:10:47;;;;;;;5.85;4.97;;;;;;;;;;5070751;28;20028;-56
2024/03/23 09:13:12;;;;;;;12.48;6.25;;;;;;;;;;5071136;28;20028;-56
2024/03/23 09:15:45;;;;;;;4.10;3.58;;;;;;;;;;5070588;28;20025;-56
2024/03/23 09:18:10;;;;;;;4.45;3.88;;;;;;;;;;5070606;28;20059;-56
2024/03/23 09:20:35;;;;;;;4.97;4.47;;;;;;;;;;5070349;28;20079;-56
2024/03/23 09:23:01;;;;;;;7.47;5.68;;;;;;;;;;5070861;28;20036;-56
2024/03/23 09:25:26;;;;;;;5.03;4.45;;;;;;;;;;5070776;28;20036;-56
2024/03/23 09:27:52;;;;;;;7.55;5.35;;;;;;;;;;5070676;28;20028;-58
2024/03/23 09:30:17;;;;;;;6.60;5.55;;;;;;;;;;5052688;28;20067;-56
2024/03/23 09:32:43;;;;;;;8.13;6.05;;;;;;;;;;5070652;28;20028;-56
2024/03/23 09:35:09;;;;;;;1.50;1.40;;;;;;;;;;5053056;28;20382;-57
2024/03/23 09:37:34;;;;;;;12.02;7.10;;;;;;;;;;5073803;28;20074;-56
2024/03/23 09:39:59;;;;;;;7.53;4.78;;;;;;;;;;5055683;28;20062;-56
2024/03/23 09:42:25;;;;;;;8.25;5.72;;;;;;;;;;5073406;28;20032;-56
2024/03/23 09:44:51;;;;;;;12.25;7.38;;;;;;;;;;5074174;28;20033;-56
2024/03/23 09:47:16;;;;;;;6.68;5.43;;;;;;;;;;5073897;28;20032;-56
2024/03/23 09:49:41;;;;;;;10.40;6.22;;;;;;;;;;5073520;28;20052;-56
2024/03/23 09:52:07;;;;;;;3.58;3.25;;;;;;;;;;5073274;28;20028;-61
2024/03/23 09:54:33;;;;;;;6.47;3.72;;;;;;;;;;5073959;28;20039;-61
2024/03/23 09:56:59;;;;;;;8.48;5.00;;;;;;;;;;5073773;28;20020;-61
2024/03/23 09:59:26;;;;;;;6.07;4.55;;;;;;;;;;5073922;28;20035;-61
2024/03/23 10:01:52;;;;;;;1.83;1.58;;;;;;;;;;5055788;28;20390;-61
2024/03/23 10:04:37;;;;;;;0.85;0.82;;;;;;;;;;5055538;28;20479;-61
2024/03/23 10:07:11;;;;;;;4.97;4.35;;;;;;;;;;5073566;28;20075;-61
2024/03/23 10:09:37;;;;;;;1.70;1.40;;;;;;;;;;5073907;28;20025;-60
2024/03/23 10:12:09;;;;;;;6.32;3.75;;;;;;;;;;5073364;28;20576;-60
2024/03/23 10:14:35;;;;;;;9.68;4.80;;;;;;;;;;5073176;28;20028;-60
2024/03/23 10:17:19;;;;;;;4.85;4.30;;;;;;;;;;5073853;28;20558;-60
2024/03/23 10:19:46;;;;;;;4.93;4.15;;;;;;;;;;5073598;28;20539;-61
2024/03/23 10:22:15;;;;;;;4.55;2.97;;;;;;;;;;5038744;28;20119;-61
2024/03/23 10:24:40;;;;;;;3.75;2.05;;;;;;;;;;5073604;28;20021;-60
2024/03/23 10:27:06;;;;;;;4.03;3.60;;;;;;;;;;5073404;28;20505;-60
2024/03/23 10:29:31;;;;;;;4.72;3.92;;;;;;;;;;5072902;28;20032;-60
2024/03/23 10:32:09;;;;;;;1.83;1.60;;;;;;;;;;5072914;28;20040;-61
2024/03/23 10:34:35;;;;;;;3.80;2.40;;;;;;;;;;5073478;28;20028;-61
2024/03/23 10:37:02;;;;;;;1.88;1.40;;;;;;;;;;5073140;28;20056;-61
2024/03/23 10:39:27;;;;;;;5.47;3.63;;;;;;;;;;5073148;28;20032;-61
2024/03/23 10:41:53;;;;;;;3.03;1.65;;;;;;;;;;5072350;28;20045;-56
2024/03/23 10:44:19;;;;;;;3.65;2.83;;;;;;;;;;5072402;28;20060;-57
2024/03/23 10:46:45;;;;;;;3.42;3.13;;;;;;;;;;5071021;28;20036;-56
2024/03/23 10:49:10;;;;;;;10.65;4.47;;;;;;;;;;5073079;28;20032;-57
2024/03/23 10:51:36;;;;;;;3.60;2.90;;;;;;;;;;5073065;28;20471;-57
2024/03/23 10:54:04;;;;;;;5.88;2.90;;;;;;;;;;5055053;28;20036;-59
2024/03/23 10:56:33;;;;;;;4.07;3.25;;;;;;;;;;5073077;28;20041;-56
2024/03/23 10:59:01;;;;;;;4.50;2.88;;;;;;;;;;5072669;28;20391;-61
2024/03/23 11:01:26;;;;;;;1.52;1.42;;;;;;;;;;5073548;28;20105;-60
2024/03/23 11:03:51;;;;;;;3.28;2.00;;;;;;;;;;5072815;28;20108;-62
2024/03/23 11:06:35;;;;;;;6.43;2.95;;;;;;;;;;5072701;28;20391;-61
2024/03/23 11:09:01;;;;;;;3.25;2.10;;;;;;;;;;5072630;28;20051;-59
2024/03/23 11:11:28;;;;;;;2.22;2.03;;;;;;;;;;5072640;28;20483;-57
2024/03/23 11:13:55;;;;;;;3.33;3.03;;;;;;;;;;5072742;28;20793;-55
2024/03/23 11:16:24;;;;;;;3.40;2.17;;;;;;;;;;5072737;28;20036;-56
2024/03/23 11:18:50;;;;;;;2.85;2.40;;;;;;;;;;5072300;28;20085;-56
2024/03/23 11:21:34;;;;;;;2.08;1.88;;;;;;;;;;5072518;28;20028;-57
2024/03/23 11:24:14;;;;;;;3.70;3.10;;;;;;;;;;5072337;28;20080;-57
2024/03/23 11:26:40;;;;;;;2.90;2.45;;;;;;;;;;5072308;28;20020;-57
2024/03/23 11:29:11;;;;;;;2.78;1.98;;;;;;;;;;5072499;28;20370;-57
2024/03/23 11:31:37;;;;;;;6.03;0.98;;;;;;;;;;5072236;28;20036;-57
2024/03/23 11:34:04;;;;;;;5.57;3.33;;;;;;;;;;5072103;28;20035;-57
2024/03/23 11:36:30;;;;;;;1.52;1.42;;;;;;;;;;5072267;28;20045;-57
2024/03/23 11:38:55;;;;;;;2.00;1.55;;;;;;;;;;5053704;28;20033;-57
2024/03/23 11:41:21;;;;;;;1.30;1.15;;;;;;;;;;5071195;28;20037;-57
2024/03/23 11:43:46;;;;;;;0.95;0.88;;;;;;;;;;5071297;28;20067;-56
2024/03/23 11:46:21;;;;;;;3.78;2.88;;;;;;;;;;5053612;28;20037;-56
2024/03/23 11:48:49;;;;;;;1.60;1.50;;;;;;;;;;5071361;28;20032;-56
2024/03/23 11:51:14;;;;;;;2.85;1.60;;;;;;;;;;5071967;28;20068;-56
2024/03/23 11:53:40;;;;;;;1.80;1.70;;;;;;;;;;5053896;28;20063;-57
2024/03/23 11:56:05;;;;;;;1.00;0.98;;;;;;;;;;5071712;28;20036;-57
2024/03/23 11:58:32;;;;;;;2.63;1.88;;;;;;;;;;5052405;28;20043;-57
2024/03/23 12:01:04;;;;;;;8.45;3.10;;;;;;;;;;5071400;28;20028;-57
2024/03/23 12:03:30;;;;;;;1.45;1.10;;;;;;;;;;5071353;28;20060;-57
2024/03/23 12:05:56;;;;;;;2.10;1.67;;;;;;;;;;5071545;28;20075;-57
2024/03/23 12:08:28;;;;;;;1.77;1.02;;;;;;;;;;5071615;28;20028;-57
2024/03/23 12:11:07;;;;;;;1.50;1.35;;;;;;;;;;5053286;28;20032;-57
2024/03/23 12:13:33;;;;;;;1.58;1.45;;;;;;;;;;5071430;28;20112;-57
2024/03/23 12:16:14;;;;;;;1.67;1.30;;;;;;;;;;5071274;28;20115;-57
2024/03/23 12:18:40;;;;;;;1.58;0.73;;;;;;;;;;5053255;28;20036;-57
2024/03/23 12:21:08;;;;;;;2.38;1.58;;;;;;;;;;5053366;28;20059;-57
2024/03/23 12:23:34;;;;;;;3.60;2.22;;;;;;;;;;5053226;28;20036;-56
2024/03/23 12:25:59;;;;;;;2.42;1.13;;;;;;;;;;5071261;28;20033;-57
2024/03/23 12:28:25;;;;;;;2.45;1.65;;;;;;;;;;5071330;28;20555;-57
2024/03/23 12:30:52;;;;;;;1.27;1.17;;;;;;;;;;5053145;28;20078;-57
2024/03/23 12:33:18;;;;;;;1.92;1.30;;;;;;;;;;5053332;28;20467;-57
2024/03/23 12:35:43;;;;;;;1.42;1.27;;;;;;;;;;5049308;28;20048;-56
2024/03/23 12:38:18;;;;;;;2.33;1.80;;;;;;;;;;5050924;28;20123;-56
2024/03/23 12:40:47;;;;;;;2.75;1.48;;;;;;;;;;5050754;28;20049;-56
2024/03/23 12:43:13;;;;;;;4.38;2.03;;;;;;;;;;5051100;28;20505;-56
2024/03/23 12:45:38;;;;;;;2.03;1.60;;;;;;;;;;5050879;28;20123;-56
2024/03/23 12:48:04;;;;;;;3.13;2.33;;;;;;;;;;5050989;28;20060;-56
2024/03/23 12:50:29;;;;;;;1.95;1.58;;;;;;;;;;5049224;28;20036;-57
2024/03/23 12:52:55;;;;;;;3.22;2.03;;;;;;;;;;5050943;28;20033;-56
2024/03/23 12:55:21;;;;;;;2.00;1.83;;;;;;;;;;5051151;28;20094;-56
2024/03/23 12:57:46;;;;;;;3.28;1.10;;;;;;;;;;5049367;28;20080;-61
2024/03/23 13:00:12;;;;;;;9.90;2.13;;;;;;;;;;5050466;28;20438;-56
2024/03/23 13:02:39;;;;;;;0.93;0.70;;;;;;;;;;5049514;28;20033;-60
2024/03/23 13:05:04;;;;;;;4.25;1.60;;;;;;;;;;5049484;28;20116;-60
2024/03/23 13:07:30;;;;;;;2.50;2.13;;;;;;;;;;5051062;28;20116;-60
2024/03/23 13:09:56;;;;;;;2.38;1.88;;;;;;;;;;5050229;28;20036;-60
2024/03/23 13:12:22;;;;;;;1.83;1.40;;;;;;;;;;5050513;28;20021;-57
2024/03/23 13:14:48;;;;;;;2.20;1.80;;;;;;;;;;5050753;28;20028;-56
2024/03/23 13:17:13;;;;;;;3.53;1.50;;;;;;;;;;5050948;28;20399;-56
2024/03/23 13:19:39;;;;;;;0.88;0.88;;;;;;;;;;5050571;28;20099;-56
2024/03/23 13:22:05;;;;;;;1.30;1.20;;;;;;;;;;5050646;28;20033;-56
2024/03/23 13:24:31;;;;;;;2.50;1.17;;;;;;;;;;5049053;28;20033;-56
2024/03/23 13:26:57;;;;;;;1.85;1.63;;;;;;;;;;5050266;28;20044;-56
2024/03/23 13:29:22;;;;;;;3.67;1.58;;;;;;;;;;5050171;28;20060;-56
2024/03/23 13:31:48;;;;;;;3.17;1.90;;;;;;;;;;5050690;28;20040;-56
2024/03/23 13:34:15;;;;;;;1.83;1.42;;;;;;;;;;5050479;28;20033;-56
2024/03/23 13:36:40;;;;;;;0.75;0.75;;;;;;;;;;5049202;28;20041;-56
2024/03/23 13:39:10;;;;;;;1.70;0.88;;;;;;;;;;5050172;28;20158;-56
2024/03/23 13:41:39;;;;;;;2.22;1.48;;;;;;;;;;5050188;28;20029;-56
2024/03/23 13:44:10;;;;;;;1.48;1.38;;;;;;;;;;5050381;28;20037;-56
2024/03/23 13:46:35;;;;;;;1.98;1.33;;;;;;;;;;5050392;28;20061;-56
2024/03/23 13:49:01;;;;;;;1.45;1.35;;;;;;;;;;5050409;28;20117;-57
2024/03/23 13:51:27;;;;;;;1.48;1.38;;;;;;;;;;5050214;28;20498;-57
2024/03/23 13:53:53;;;;;;;2.47;1.50;;;;;;;;;;5050410;28;20035;-57
2024/03/23 13:56:19;;;;;;;1.17;1.13;;;;;;;;;;5050436;28;20043;-57
2024/03/23 13:58:46;;;;;;;1.50;1.10;;;;;;;;;;5048877;28;20041;-56
2024/03/23 14:01:15;;;;;;;0.68;0.63;;;;;;;;;;5044511;28;20025;-57
2024/03/23 14:03:41;;;;;;;1.88;1.30;;;;;;;;;;5037845;28;20079;-56
2024/03/23 14:06:07;;;;;;;1.10;1.10;;;;;;;;;;5043066;28;20033;-61
2024/03/23 14:08:35;;;;;;;2.08;1.40;;;;;;;;;;5040968;28;20427;-56
2024/03/23 14:11:02;;;;;;;1.45;0.88;;;;;;;;;;5046333;28;20025;-62
2024/03/23 14:13:28;;;;;;;1.40;1.30;;;;;;;;;;5049110;28;20564;-61
2024/03/23 14:28:35;;;;;;;1.33;1.20;;;;;;;;;;5083902;27;20827;-61
2024/03/23 14:31:00;;;;;;;1.40;1.30;;;;;;;;;;5082607;28;20136;-61
2024/03/23 14:33:26;;;;;;;1.20;1.10;;;;;;;;;;5083555;28;20044;-60
2024/03/23 14:35:53;;;;;;;0.90;0.90;;;;;;;;;;5083519;28;20032;-61
2024/03/23 14:38:18;;;;;;;0.82;0.82;;;;;;;;;;5082327;28;20107;-61
2024/03/23 14:40:43;;;;;;;1.75;1.20;;;;;;;;;;5081517;28;20048;-67